createdAt,value
2023-05-05T00:00:23.658Z,95148.00
2023-05-05T00:01:23.622Z,95152.00
2023-05-05T00:02:23.643Z,95150.00
2023-05-05T00:03:23.711Z,95150.00
2023-05-05T00:04:23.703Z,95152.00
2023-05-05T00:05:23.662Z,95148.00
2023-05-05T00:06:23.697Z,95148.00
2023-05-05T00:07:23.692Z,95150.00
2023-05-05T00:08:23.699Z,95150.00
2023-05-05T00:09:23.810Z,95152.00
2023-05-05T00:10:23.721Z,95150.00
2023-05-05T00:11:23.752Z,95154.00
2023-05-05T00:12:23.747Z,95154.00
2023-05-05T00:13:23.757Z,95156.00
2023-05-05T00:14:23.757Z,95156.00
2023-05-05T00:15:23.839Z,95152.00
2023-05-05T00:16:23.872Z,95152.00
2023-05-05T00:17:23.790Z,95150.00
2023-05-05T00:18:23.836Z,95152.00
2023-05-05T00:19:23.853Z,95150.00
2023-05-05T00:20:23.848Z,95152.00
2023-05-05T00:21:23.855Z,95154.00
2023-05-05T00:22:23.862Z,95154.00
2023-05-05T00:23:23.881Z,95154.00
2023-05-05T00:24:23.883Z,95154.00
2023-05-05T00:25:23.877Z,95154.00
2023-05-05T00:26:23.929Z,95154.00
2023-05-05T00:27:23.906Z,95154.00
2023-05-05T00:28:24.006Z,95156.00
2023-05-05T00:29:23.962Z,95154.00
2023-05-05T00:30:23.971Z,95152.00
2023-05-05T00:31:23.995Z,95154.00
2023-05-05T00:32:23.986Z,95152.00
2023-05-05T00:33:23.994Z,95154.00
2023-05-05T00:34:24.055Z,95152.00
2023-05-05T00:35:24.072Z,95152.00
2023-05-05T00:36:24.080Z,95152.00
2023-05-05T00:37:24.078Z,95154.00
2023-05-05T00:38:24.069Z,95156.00
2023-05-05T00:39:24.094Z,95156.00
2023-05-05T00:40:24.098Z,95154.00
2023-05-05T00:41:24.092Z,95156.00
2023-05-05T00:42:24.111Z,95156.00
2023-05-05T00:43:24.130Z,95156.00
2023-05-05T00:44:24.119Z,95156.00
2023-05-05T00:45:24.127Z,95156.00
2023-05-05T00:46:24.137Z,95156.00
2023-05-05T00:47:24.187Z,95152.00
2023-05-05T00:48:24.190Z,95154.00
2023-05-05T00:49:24.274Z,95154.00
2023-05-05T00:50:24.213Z,95154.00
2023-05-05T00:51:24.237Z,95152.00
2023-05-05T00:52:24.217Z,95154.00
2023-05-05T00:53:24.241Z,95156.00
2023-05-05T00:54:24.300Z,95156.00
2023-05-05T00:55:24.274Z,95156.00
2023-05-05T00:56:24.314Z,95158.00
2023-05-05T00:57:24.329Z,95158.00
2023-05-05T00:58:24.322Z,95158.00
2023-05-05T00:59:24.333Z,95158.00
2023-05-05T01:00:24.342Z,95160.00
2023-05-05T01:01:24.395Z,95156.00
2023-05-05T01:02:24.376Z,95158.00
2023-05-05T01:03:24.476Z,95154.00
2023-05-05T01:04:24.410Z,95152.00
2023-05-05T01:05:24.390Z,95152.00
2023-05-05T01:06:24.495Z,95150.00
2023-05-05T01:07:24.456Z,95150.00
2023-05-05T01:08:24.493Z,95152.00
2023-05-05T01:09:24.494Z,95148.00
2023-05-05T01:10:24.722Z,95150.00
2023-05-05T01:11:24.560Z,95150.00
2023-05-05T01:12:24.529Z,95152.00
2023-05-05T01:13:24.576Z,95140.00
2023-05-05T01:14:24.641Z,95140.00
2023-05-05T01:15:24.682Z,95148.00
2023-05-05T01:16:24.631Z,95138.00
2023-05-05T01:17:24.726Z,95140.00
2023-05-05T01:18:24.661Z,95140.00
2023-05-05T01:19:24.675Z,95140.00
2023-05-05T01:20:24.713Z,95140.00
2023-05-05T01:21:24.706Z,95148.00
2023-05-05T01:22:24.736Z,95150.00
2023-05-05T01:23:24.721Z,95150.00
2023-05-05T01:24:24.861Z,95148.00
2023-05-05T01:25:24.757Z,95150.00
2023-05-05T01:26:24.812Z,95150.00
2023-05-05T01:27:24.807Z,95150.00
2023-05-05T01:28:24.830Z,95148.00
2023-05-05T01:29:24.835Z,95148.00
2023-05-05T01:30:24.845Z,95150.00
2023-05-05T01:31:24.998Z,95152.00
2023-05-05T01:32:24.905Z,95152.00
2023-05-05T01:33:25.069Z,95152.00
2023-05-05T01:34:24.923Z,95152.00
2023-05-05T01:35:24.936Z,95154.00
2023-05-05T01:36:24.929Z,95156.00
2023-05-05T01:37:25.044Z,95156.00
2023-05-05T01:38:24.989Z,95152.00
2023-05-05T01:39:25.018Z,95154.00
2023-05-05T01:40:25.013Z,95154.00
2023-05-05T01:41:25.061Z,95156.00
2023-05-05T01:42:25.062Z,95156.00
2023-05-05T01:43:25.069Z,95156.00
2023-05-05T01:44:25.090Z,95154.00
2023-05-05T01:45:25.107Z,95156.00
2023-05-05T01:46:25.159Z,95154.00
2023-05-05T01:47:25.210Z,95156.00
2023-05-05T01:48:25.175Z,95154.00
2023-05-05T01:49:25.194Z,95156.00
2023-05-05T01:50:25.235Z,95160.00
2023-05-05T01:51:25.228Z,95162.00
2023-05-05T01:52:25.244Z,95160.00
2023-05-05T01:53:25.280Z,95160.00
2023-05-05T01:54:25.320Z,95162.00
2023-05-05T01:55:25.311Z,95160.00
2023-05-05T01:56:25.331Z,95162.00
2023-05-05T01:57:25.385Z,95162.00
2023-05-05T01:58:25.385Z,95162.00
2023-05-05T01:59:25.372Z,95162.00
2023-05-05T02:00:25.462Z,95163.00
2023-05-05T02:01:25.443Z,95165.00
2023-05-05T02:02:25.479Z,95167.00
2023-05-05T02:03:25.584Z,95163.00
2023-05-05T02:04:25.504Z,95163.00
2023-05-05T02:05:25.501Z,95162.00
2023-05-05T02:06:25.524Z,95160.00
2023-05-05T02:07:25.560Z,95160.00
2023-05-05T02:08:25.616Z,95160.00
2023-05-05T02:09:25.628Z,95158.00
2023-05-05T02:10:25.649Z,95162.00
2023-05-05T02:11:25.663Z,95163.00
2023-05-05T02:12:25.673Z,95165.00
2023-05-05T02:13:25.747Z,95165.00
2023-05-05T02:14:25.755Z,95167.00
2023-05-05T02:15:25.768Z,95167.00
2023-05-05T02:16:25.768Z,95171.00
2023-05-05T02:17:25.933Z,95169.00
2023-05-05T02:18:25.828Z,95169.00
2023-05-05T02:19:25.832Z,95171.00
2023-05-05T02:20:25.901Z,95169.00
2023-05-05T02:21:25.913Z,95165.00
2023-05-05T02:22:25.925Z,95167.00
2023-05-05T02:23:25.938Z,95173.00
2023-05-05T02:24:25.962Z,95169.00
2023-05-05T02:25:26.113Z,95171.00
2023-05-05T02:26:26.063Z,95169.00
2023-05-05T02:27:26.038Z,95171.00
2023-05-05T02:28:26.059Z,95169.00
2023-05-05T02:29:26.073Z,95169.00
2023-05-05T02:30:26.109Z,95171.00
2023-05-05T02:31:26.181Z,95171.00
2023-05-05T02:32:26.201Z,95175.00
2023-05-05T02:33:26.191Z,95175.00
2023-05-05T02:34:26.204Z,95175.00
2023-05-05T02:35:26.238Z,95171.00
2023-05-05T02:36:26.327Z,95175.00
2023-05-05T02:37:26.273Z,95175.00
2023-05-05T02:38:26.316Z,95175.00
2023-05-05T02:39:26.348Z,95175.00
2023-05-05T02:40:26.358Z,95177.00
2023-05-05T02:41:26.366Z,95177.00
2023-05-05T02:42:26.400Z,95179.00
2023-05-05T02:43:26.521Z,95181.00
2023-05-05T02:44:26.489Z,95179.00
2023-05-05T02:45:26.480Z,95181.00
2023-05-05T02:46:26.550Z,95179.00
2023-05-05T02:47:26.561Z,95177.00
2023-05-05T02:48:26.559Z,95177.00
2023-05-05T02:49:26.611Z,95177.00
2023-05-05T02:50:26.676Z,95177.00
2023-05-05T02:51:26.646Z,95177.00
2023-05-05T02:52:26.693Z,95177.00
2023-05-05T02:53:26.750Z,95177.00
2023-05-05T02:54:27.815Z,95179.00
2023-05-05T02:55:26.746Z,95181.00
2023-05-05T02:56:26.807Z,95181.00
2023-05-05T02:57:26.818Z,95181.00
2023-05-05T02:58:26.886Z,95179.00
2023-05-05T02:59:26.884Z,95181.00
2023-05-05T03:00:26.925Z,95181.00
2023-05-05T03:01:26.996Z,95181.00
2023-05-05T03:02:27.075Z,95181.00
2023-05-05T03:03:27.079Z,95181.00
2023-05-05T03:04:27.091Z,95181.00
2023-05-05T03:05:27.064Z,95181.00
2023-05-05T03:06:27.136Z,95183.00
2023-05-05T03:07:27.188Z,95185.00
2023-05-05T03:08:27.198Z,95185.00
2023-05-05T03:09:27.202Z,95183.00
2023-05-05T03:10:27.260Z,95189.00
2023-05-05T03:11:27.236Z,95185.00
2023-05-05T03:12:27.318Z,95187.00
2023-05-05T03:13:27.307Z,95187.00
2023-05-05T03:14:27.414Z,95185.00
2023-05-05T03:15:27.412Z,95183.00
2023-05-05T03:16:27.432Z,95183.00
2023-05-05T03:17:27.503Z,95183.00
2023-05-05T03:18:27.518Z,95181.00
2023-05-05T03:19:27.529Z,95181.00
2023-05-05T03:20:27.593Z,95181.00
2023-05-05T03:21:27.606Z,95183.00
2023-05-05T03:22:27.661Z,95181.00
2023-05-05T03:23:27.662Z,95183.00
2023-05-05T03:24:27.671Z,95181.00
2023-05-05T03:25:27.701Z,95181.00
2023-05-05T03:26:27.806Z,95179.00
2023-05-05T03:27:27.796Z,95179.00
2023-05-05T03:28:27.800Z,95181.00
2023-05-05T03:29:27.902Z,95181.00
2023-05-05T03:30:27.956Z,95179.00
2023-05-05T03:31:27.941Z,95183.00
2023-05-05T03:32:27.977Z,95181.00
2023-05-05T03:33:27.995Z,95179.00
2023-05-05T03:34:28.050Z,95177.00
2023-05-05T03:35:28.101Z,95175.00
2023-05-05T03:36:29.405Z,95179.00
2023-05-05T03:37:28.163Z,95181.00
2023-05-05T03:38:28.178Z,95183.00
2023-05-05T03:39:28.179Z,95183.00
2023-05-05T03:40:40.390Z,95183.00
2023-05-05T03:41:29.211Z,95183.00
2023-05-05T03:42:28.210Z,95183.00
2023-05-05T03:43:28.210Z,95183.00
2023-05-05T03:44:28.220Z,95181.00
2023-05-05T03:45:28.181Z,95185.00
2023-05-05T03:46:28.182Z,95185.00
2023-05-05T03:47:28.197Z,95183.00
2023-05-05T03:48:28.240Z,95183.00
2023-05-05T03:49:28.143Z,95185.00
2023-05-05T03:50:28.146Z,95183.00
2023-05-05T03:51:28.155Z,95181.00
2023-05-05T03:52:28.155Z,95181.00
2023-05-05T03:53:28.172Z,95183.00
2023-05-05T03:54:28.181Z,95179.00
2023-05-05T03:55:28.229Z,95179.00
2023-05-05T03:56:28.303Z,95181.00
2023-05-05T03:57:28.307Z,95177.00
2023-05-05T03:58:28.371Z,95179.00
2023-05-05T03:59:28.429Z,95177.00
2023-05-05T04:00:28.445Z,95175.00
2023-05-05T04:01:28.483Z,95187.00
2023-05-05T04:02:28.630Z,95197.00
2023-05-05T04:03:28.665Z,95197.00
2023-05-05T04:04:28.639Z,95197.00
2023-05-05T04:05:28.609Z,95199.00
2023-05-05T04:06:28.681Z,95199.00
2023-05-05T04:07:28.662Z,95201.00
2023-05-05T04:08:28.681Z,95201.00
2023-05-05T04:09:28.751Z,95203.00
2023-05-05T04:10:28.756Z,95203.00
2023-05-05T04:11:28.813Z,95203.00
2023-05-05T04:12:28.831Z,95205.00
2023-05-05T04:13:28.858Z,95207.00
2023-05-05T04:14:28.957Z,95207.00
2023-05-05T04:15:28.941Z,95205.00
2023-05-05T04:16:29.014Z,95205.00
2023-05-05T04:17:29.033Z,95205.00
2023-05-05T04:18:29.070Z,95207.00
2023-05-05T04:19:29.110Z,95207.00
2023-05-05T04:20:29.183Z,95207.00
2023-05-05T04:21:29.193Z,95209.00
2023-05-05T04:22:29.235Z,95209.00
2023-05-05T04:23:29.291Z,95209.00
2023-05-05T04:24:29.322Z,95209.00
2023-05-05T04:25:29.267Z,95209.00
2023-05-05T04:26:29.429Z,95209.00
2023-05-05T04:27:29.333Z,95209.00
2023-05-05T04:28:29.342Z,95209.00
2023-05-05T04:29:29.338Z,95209.00
2023-05-05T04:30:29.377Z,95181.00
2023-05-05T04:31:29.494Z,95183.00
2023-05-05T04:32:29.372Z,95183.00
2023-05-05T04:33:29.330Z,95185.00
2023-05-05T04:34:29.375Z,95187.00
2023-05-05T04:35:29.383Z,95187.00
2023-05-05T04:36:29.389Z,95193.00
2023-05-05T04:37:29.431Z,95195.00
2023-05-05T04:38:29.560Z,95193.00
2023-05-05T04:39:29.360Z,95193.00
2023-05-05T04:40:29.431Z,95199.00
2023-05-05T04:41:30.093Z,95199.00
2023-05-05T04:42:29.391Z,95201.00
2023-05-05T04:43:29.368Z,95203.00
2023-05-05T04:44:29.400Z,95203.00
2023-05-05T04:45:29.403Z,95203.00
2023-05-05T04:46:29.428Z,95199.00
2023-05-05T04:47:29.520Z,95203.00
2023-05-05T04:48:29.473Z,95201.00
2023-05-05T04:49:29.512Z,95201.00
2023-05-05T04:50:29.545Z,95201.00
2023-05-05T04:51:29.589Z,95203.00
2023-05-05T04:52:29.661Z,95199.00
2023-05-05T04:53:29.702Z,95199.00
2023-05-05T04:54:29.764Z,95197.00
2023-05-05T04:55:29.762Z,95197.00
2023-05-05T04:56:29.841Z,95199.00
2023-05-05T04:57:29.841Z,95201.00
2023-05-05T04:58:29.846Z,95203.00
2023-05-05T04:59:29.853Z,95203.00
2023-05-05T05:00:29.869Z,95201.00
2023-05-05T05:01:29.854Z,95207.00
2023-05-05T05:02:29.913Z,95205.00
2023-05-05T05:03:29.983Z,95205.00
2023-05-05T05:04:29.897Z,95207.00
2023-05-05T05:05:29.899Z,95209.00
2023-05-05T05:06:29.906Z,95209.00
2023-05-05T05:07:29.845Z,95211.00
2023-05-05T05:08:29.924Z,95211.00
2023-05-05T05:09:29.974Z,95209.00
2023-05-05T05:10:29.986Z,95213.00
2023-05-05T05:11:29.975Z,95211.00
2023-05-05T05:12:30.043Z,95211.00
2023-05-05T05:13:29.986Z,95211.00
2023-05-05T05:14:30.111Z,95215.00
2023-05-05T05:15:30.108Z,95215.00
2023-05-05T05:16:30.105Z,95217.00
2023-05-05T05:17:30.187Z,95218.00
2023-05-05T05:18:30.130Z,95213.00
2023-05-05T05:19:30.116Z,95217.00
2023-05-05T05:20:30.126Z,95215.00
2023-05-05T05:21:30.165Z,95213.00
2023-05-05T05:22:30.229Z,95211.00
2023-05-05T05:23:30.246Z,95211.00
2023-05-05T05:24:30.268Z,95211.00
2023-05-05T05:25:30.243Z,95209.00
2023-05-05T05:26:30.251Z,95213.00
2023-05-05T05:27:30.380Z,95211.00
2023-05-05T05:28:30.424Z,95211.00
2023-05-05T05:29:30.391Z,95213.00
2023-05-05T05:30:30.401Z,95213.00
2023-05-05T05:31:30.410Z,95211.00
2023-05-05T05:32:30.515Z,95213.00
2023-05-05T05:33:30.629Z,95211.00
2023-05-05T05:34:30.551Z,95213.00
2023-05-05T05:35:30.515Z,95211.00
2023-05-05T05:36:31.342Z,95215.00
2023-05-05T05:37:30.584Z,95215.00
2023-05-05T05:38:30.642Z,95209.00
2023-05-05T05:39:30.684Z,95211.00
2023-05-05T05:40:30.858Z,95209.00
2023-05-05T05:41:30.804Z,95211.00
2023-05-05T05:42:30.915Z,95211.00
2023-05-05T05:43:31.012Z,95217.00
2023-05-05T05:44:31.294Z,95217.00
2023-05-05T05:45:31.017Z,95217.00
2023-05-05T05:46:31.125Z,95215.00
2023-05-05T05:47:31.153Z,95217.00
2023-05-05T05:48:31.322Z,95217.00
2023-05-05T05:49:32.808Z,95217.00
2023-05-05T05:50:31.342Z,95238.00
2023-05-05T05:51:31.345Z,95238.00
2023-05-05T05:52:31.502Z,95236.00
2023-05-05T05:53:31.502Z,95238.00
2023-05-05T05:54:31.982Z,95234.00
2023-05-05T05:55:31.525Z,95238.00
2023-05-05T05:56:31.493Z,95236.00
2023-05-05T05:57:31.829Z,95238.00
2023-05-05T05:58:31.705Z,95234.00
2023-05-05T05:59:31.608Z,95236.00
2023-05-05T06:00:31.749Z,95236.00
2023-05-05T06:01:32.345Z,95236.00
2023-05-05T06:02:31.815Z,95236.00
2023-05-05T06:03:31.882Z,95236.00
2023-05-05T06:04:31.853Z,95236.00
2023-05-05T06:05:31.850Z,95238.00
2023-05-05T06:06:31.861Z,95236.00
2023-05-05T06:07:31.860Z,95240.00
2023-05-05T06:08:32.476Z,95238.00
2023-05-05T06:09:31.979Z,95238.00
2023-05-05T06:10:32.220Z,95238.00
2023-05-05T06:11:31.994Z,95240.00
2023-05-05T06:12:32.117Z,95238.00
2023-05-05T06:13:32.319Z,95236.00
2023-05-05T06:14:32.042Z,95242.00
2023-05-05T06:15:32.076Z,95240.00
2023-05-05T06:16:32.110Z,95240.00
2023-05-05T06:17:32.181Z,95242.00
2023-05-05T06:18:32.383Z,95236.00
2023-05-05T06:19:32.177Z,95236.00
2023-05-05T06:20:32.267Z,95236.00
2023-05-05T06:21:32.602Z,95236.00
2023-05-05T06:22:32.265Z,95236.00
2023-05-05T06:23:32.314Z,95236.00
2023-05-05T06:24:32.273Z,95238.00
2023-05-05T06:25:32.295Z,95232.00
2023-05-05T06:26:32.344Z,95234.00
2023-05-05T06:27:32.426Z,95234.00
2023-05-05T06:28:32.838Z,95230.00
2023-05-05T06:29:32.415Z,95228.00
2023-05-05T06:30:32.364Z,95232.00
2023-05-05T06:31:32.395Z,95228.00
2023-05-05T06:32:32.391Z,95228.00
2023-05-05T06:33:32.367Z,95224.00
2023-05-05T06:34:32.372Z,95228.00
2023-05-05T06:35:32.884Z,95226.00
2023-05-05T06:36:32.501Z,95224.00
2023-05-05T06:37:32.414Z,95224.00
2023-05-05T06:38:32.423Z,95222.00
2023-05-05T06:39:32.430Z,95218.00
2023-05-05T06:40:32.861Z,95218.00
2023-05-05T06:41:32.535Z,95218.00
2023-05-05T06:42:32.510Z,95218.00
2023-05-05T06:43:32.440Z,95215.00
2023-05-05T06:44:32.422Z,95217.00
2023-05-05T06:45:32.487Z,95197.00
2023-05-05T06:46:32.580Z,95193.00
2023-05-05T06:47:32.445Z,95193.00
2023-05-05T06:48:32.488Z,95191.00
2023-05-05T06:49:32.451Z,95191.00
2023-05-05T06:50:32.451Z,95207.00
2023-05-05T06:51:32.480Z,95207.00
2023-05-05T06:52:32.796Z,95207.00
2023-05-05T06:53:32.927Z,95211.00
2023-05-05T06:54:32.944Z,95211.00
2023-05-05T06:55:32.909Z,95209.00
2023-05-05T06:56:33.505Z,95207.00
2023-05-05T06:57:32.557Z,95209.00
2023-05-05T06:58:32.836Z,95205.00
2023-05-05T06:59:32.655Z,95209.00
2023-05-05T07:00:32.657Z,95207.00
2023-05-05T07:01:32.725Z,95209.00
2023-05-05T07:02:32.635Z,95205.00
2023-05-05T07:03:32.800Z,95205.00
2023-05-05T07:04:32.851Z,95203.00
2023-05-05T07:05:32.804Z,95203.00
2023-05-05T07:06:32.992Z,95203.00
2023-05-05T07:07:32.916Z,95203.00
2023-05-05T07:08:33.349Z,95203.00
2023-05-05T07:09:32.977Z,95201.00
2023-05-05T07:10:33.184Z,95201.00
2023-05-05T07:11:33.108Z,95199.00
2023-05-05T07:12:33.206Z,95177.00
2023-05-05T07:13:33.508Z,95199.00
2023-05-05T07:14:33.287Z,95199.00
2023-05-05T07:15:33.331Z,95197.00
2023-05-05T07:16:33.440Z,95195.00
2023-05-05T07:17:33.565Z,95197.00
2023-05-05T07:18:33.914Z,95197.00
2023-05-05T07:19:33.649Z,95195.00
2023-05-05T07:20:33.600Z,95193.00
2023-05-05T07:21:33.577Z,95191.00
2023-05-05T07:22:33.646Z,95191.00
2023-05-05T07:23:33.698Z,95189.00
2023-05-05T07:24:33.729Z,95187.00
2023-05-05T07:25:33.747Z,95183.00
2023-05-05T07:26:33.789Z,95183.00
2023-05-05T07:27:33.920Z,95183.00
2023-05-05T07:28:33.831Z,95181.00
2023-05-05T07:29:33.949Z,95181.00
2023-05-05T07:30:36.444Z,95158.00
2023-05-05T07:31:34.518Z,95158.00
2023-05-05T07:32:33.938Z,95160.00
2023-05-05T07:33:33.880Z,95158.00
2023-05-05T07:34:33.887Z,95162.00
2023-05-05T07:35:33.897Z,95154.00
2023-05-05T07:36:33.877Z,95154.00
2023-05-05T07:37:33.815Z,95154.00
2023-05-05T07:38:34.409Z,95154.00
2023-05-05T07:39:33.936Z,95150.00
2023-05-05T07:40:34.359Z,95150.00
2023-05-05T07:41:33.917Z,95150.00
2023-05-05T07:42:33.877Z,95138.00
2023-05-05T07:43:34.028Z,95138.00
2023-05-05T07:44:33.772Z,95138.00
2023-05-05T07:45:33.976Z,95136.00
2023-05-05T07:46:33.937Z,95134.00
2023-05-05T07:47:33.928Z,95132.00
2023-05-05T07:48:33.824Z,95128.00
2023-05-05T07:49:34.513Z,95130.00
2023-05-05T07:50:34.399Z,95126.00
2023-05-05T07:51:34.628Z,95124.00
2023-05-05T07:52:45.026Z,95126.00
2023-05-05T07:53:34.716Z,95124.00
2023-05-05T07:54:33.727Z,95124.00
2023-05-05T07:55:33.878Z,95122.00
2023-05-05T07:56:33.717Z,95120.00
2023-05-05T07:57:33.670Z,95116.00
2023-05-05T07:58:33.735Z,95114.00
2023-05-05T07:59:33.677Z,95116.00
2023-05-05T08:00:33.846Z,95114.00
2023-05-05T08:01:33.689Z,95116.00
2023-05-05T08:02:33.895Z,95114.00
2023-05-05T08:03:33.976Z,95112.00
2023-05-05T08:04:33.775Z,95114.00
2023-05-05T08:05:33.740Z,95112.00
2023-05-05T08:06:33.819Z,95114.00
2023-05-05T08:07:34.356Z,95114.00
2023-05-05T08:08:33.872Z,95114.00
2023-05-05T08:09:33.879Z,95112.00
2023-05-05T08:10:34.400Z,95110.00
2023-05-05T08:11:33.919Z,95112.00
2023-05-05T08:12:34.010Z,95110.00
2023-05-05T08:13:33.969Z,95110.00
2023-05-05T08:14:34.064Z,95109.00
2023-05-05T08:15:34.056Z,95105.00
2023-05-05T08:16:34.251Z,95107.00
2023-05-05T08:17:34.458Z,95103.00
2023-05-05T08:18:34.215Z,95101.00
2023-05-05T08:19:34.275Z,95101.00
2023-05-05T08:20:34.386Z,95099.00
2023-05-05T08:21:35.354Z,95101.00
2023-05-05T08:22:34.447Z,95099.00
2023-05-05T08:23:34.519Z,95099.00
2023-05-05T08:24:34.557Z,95097.00
2023-05-05T08:25:34.641Z,95097.00
2023-05-05T08:26:34.694Z,95095.00
2023-05-05T08:27:34.754Z,95097.00
2023-05-05T08:28:34.792Z,95093.00
2023-05-05T08:29:34.863Z,95091.00
2023-05-05T08:30:34.867Z,95091.00
2023-05-05T08:31:34.930Z,95089.00
2023-05-05T08:32:35.060Z,95089.00
2023-05-05T08:33:35.100Z,95085.00
2023-05-05T08:34:35.145Z,95083.00
2023-05-05T08:35:35.147Z,95085.00
2023-05-05T08:36:35.245Z,95079.00
2023-05-05T08:37:35.421Z,95077.00
2023-05-05T08:38:35.373Z,95079.00
2023-05-05T08:39:35.398Z,95075.00
2023-05-05T08:40:35.496Z,95073.00
2023-05-05T08:41:35.548Z,95071.00
2023-05-05T08:42:38.487Z,95069.00
2023-05-05T08:43:35.589Z,95067.00
2023-05-05T08:44:35.618Z,95065.00
2023-05-05T08:45:36.102Z,95063.00
2023-05-05T08:46:35.910Z,95063.00
2023-05-05T08:47:35.641Z,95060.00
2023-05-05T08:48:35.545Z,95060.00
2023-05-05T08:49:35.610Z,95060.00
2023-05-05T08:50:35.515Z,95058.00
2023-05-05T08:51:35.731Z,95056.00
2023-05-05T08:52:35.570Z,95054.00
2023-05-05T08:53:35.520Z,95054.00
2023-05-05T08:54:35.911Z,95054.00
2023-05-05T08:55:35.477Z,95054.00
2023-05-05T08:56:35.488Z,95054.00
2023-05-05T08:57:35.461Z,95052.00
2023-05-05T08:58:35.512Z,95052.00
2023-05-05T08:59:35.473Z,95048.00
2023-05-05T09:00:35.478Z,95050.00
2023-05-05T09:01:35.587Z,95046.00
2023-05-05T09:02:35.463Z,95048.00
2023-05-05T09:03:35.445Z,95040.00
2023-05-05T09:04:35.910Z,95044.00
2023-05-05T09:05:35.470Z,95044.00
2023-05-05T09:06:35.455Z,95040.00
2023-05-05T09:07:35.473Z,95042.00
2023-05-05T09:08:35.872Z,95040.00
2023-05-05T09:09:35.605Z,95032.00
2023-05-05T09:10:35.643Z,95036.00
2023-05-05T09:11:35.688Z,95034.00
2023-05-05T09:12:35.890Z,95030.00
2023-05-05T09:13:35.878Z,95030.00
2023-05-05T09:14:35.879Z,95030.00
2023-05-05T09:15:35.946Z,95026.00
2023-05-05T09:16:36.118Z,95024.00
2023-05-05T09:17:36.059Z,95022.00
2023-05-05T09:18:36.358Z,95018.00
2023-05-05T09:19:36.361Z,95016.00
2023-05-05T09:20:36.280Z,95016.00
2023-05-05T09:21:36.265Z,95013.00
2023-05-05T09:22:36.352Z,95015.00
2023-05-05T09:23:37.418Z,95013.00
2023-05-05T09:24:36.503Z,95015.00
2023-05-05T09:25:36.505Z,95011.00
2023-05-05T09:26:36.512Z,95011.00
2023-05-05T09:27:36.902Z,95011.00
2023-05-05T09:28:36.914Z,95007.00
2023-05-05T09:29:36.713Z,95007.00
2023-05-05T09:30:39.876Z,95007.00
2023-05-05T09:31:36.773Z,95007.00
2023-05-05T09:32:36.780Z,95003.00
2023-05-05T09:33:36.674Z,95003.00
2023-05-05T09:34:37.387Z,94999.00
2023-05-05T09:35:36.694Z,95001.00
2023-05-05T09:36:36.893Z,95001.00
2023-05-05T09:37:36.750Z,95001.00
2023-05-05T09:38:36.930Z,95001.00
2023-05-05T09:39:36.684Z,94999.00
2023-05-05T09:40:36.676Z,94997.00
2023-05-05T09:41:36.632Z,94999.00
2023-05-05T09:42:36.626Z,94993.00
2023-05-05T09:43:36.935Z,94991.00
2023-05-05T09:44:36.656Z,94989.00
2023-05-05T09:45:36.674Z,94993.00
2023-05-05T09:46:36.660Z,94991.00
2023-05-05T09:47:36.659Z,94989.00
2023-05-05T09:48:37.688Z,94989.00
2023-05-05T09:49:36.563Z,94989.00
2023-05-05T09:50:36.648Z,94985.00
2023-05-05T09:51:36.584Z,94983.00
2023-05-05T09:52:36.603Z,94983.00
2023-05-05T09:53:37.434Z,94981.00
2023-05-05T09:54:36.576Z,94983.00
2023-05-05T09:55:36.578Z,94981.00
2023-05-05T09:56:36.514Z,94981.00
2023-05-05T09:57:36.520Z,94979.00
2023-05-05T09:58:36.641Z,94981.00
2023-05-05T09:59:36.531Z,94975.00
2023-05-05T10:00:36.505Z,94975.00
2023-05-05T10:01:36.512Z,94975.00
2023-05-05T10:02:36.539Z,94975.00
2023-05-05T10:03:36.452Z,94973.00
2023-05-05T10:04:36.480Z,94971.00
2023-05-05T10:05:36.504Z,94967.00
2023-05-05T10:06:36.484Z,94965.00
2023-05-05T10:07:36.457Z,94965.00
2023-05-05T10:08:36.459Z,94965.00
2023-05-05T10:09:37.314Z,94965.00
2023-05-05T10:10:36.404Z,94963.00
2023-05-05T10:11:36.433Z,94963.00
2023-05-05T10:12:36.504Z,94960.00
2023-05-05T10:13:36.543Z,94958.00
2023-05-05T10:14:36.648Z,94960.00
2023-05-05T10:15:37.419Z,94956.00
2023-05-05T10:16:36.930Z,94956.00
2023-05-05T10:17:36.851Z,94952.00
2023-05-05T10:18:36.928Z,94948.00
2023-05-05T10:19:37.386Z,94948.00
2023-05-05T10:20:37.014Z,94944.00
2023-05-05T10:21:37.045Z,94944.00
2023-05-05T10:22:37.102Z,94942.00
2023-05-05T10:23:37.157Z,94940.00
2023-05-05T10:24:37.209Z,94938.00
2023-05-05T10:25:37.332Z,94936.00
2023-05-05T10:26:37.346Z,94936.00
2023-05-05T10:27:37.407Z,94940.00
2023-05-05T10:28:37.449Z,94938.00
2023-05-05T10:29:37.463Z,94938.00
2023-05-05T10:30:37.552Z,94934.00
2023-05-05T10:31:37.615Z,94934.00
2023-05-05T10:33:38.760Z,94946.00
2023-05-05T10:34:37.794Z,94944.00
2023-05-05T10:35:37.629Z,94944.00
2023-05-05T10:36:37.615Z,94942.00
2023-05-05T10:37:37.895Z,94938.00
2023-05-05T10:38:37.724Z,94934.00
2023-05-05T10:39:37.808Z,94932.00
2023-05-05T10:40:37.732Z,94928.00
2023-05-05T10:41:38.041Z,94926.00
2023-05-05T10:42:37.973Z,94914.00
2023-05-05T10:43:37.982Z,94924.00
2023-05-05T10:44:40.442Z,94924.00
2023-05-05T10:45:38.215Z,94911.00
2023-05-05T10:46:38.141Z,94909.00
2023-05-05T10:47:38.109Z,94936.00
2023-05-05T10:48:38.246Z,94920.00
2023-05-05T10:49:38.209Z,94918.00
2023-05-05T10:50:38.229Z,94916.00
2023-05-05T10:51:40.685Z,94914.00
2023-05-05T10:52:38.433Z,94911.00
2023-05-05T10:53:38.255Z,94909.00
2023-05-05T10:54:38.536Z,94905.00
2023-05-05T10:55:38.425Z,94879.00
2023-05-05T10:56:38.324Z,94901.00
2023-05-05T10:57:38.442Z,94899.00
2023-05-05T10:58:51.165Z,94873.00
2023-05-05T10:59:39.231Z,94897.00
2023-05-05T11:00:38.210Z,94877.00
2023-05-05T11:01:38.256Z,94868.00
2023-05-05T11:02:38.445Z,94871.00
2023-05-05T11:03:38.239Z,94881.00
2023-05-05T11:04:38.228Z,94864.00
2023-05-05T11:05:38.185Z,94864.00
2023-05-05T11:06:38.146Z,94871.00
2023-05-05T11:07:38.433Z,94860.00
2023-05-05T11:08:38.138Z,94858.00
2023-05-05T11:09:38.155Z,94858.00
2023-05-05T11:10:38.105Z,94852.00
2023-05-05T11:11:38.161Z,94858.00
2023-05-05T11:12:38.850Z,94846.00
2023-05-05T11:13:38.141Z,94846.00
2023-05-05T11:14:38.087Z,94842.00
2023-05-05T11:15:38.223Z,94840.00
2023-05-05T11:16:38.188Z,94838.00
2023-05-05T11:17:38.172Z,94832.00
2023-05-05T11:18:38.179Z,94844.00
2023-05-05T11:19:38.415Z,94834.00
2023-05-05T11:20:38.224Z,94850.00
2023-05-05T11:21:38.443Z,94864.00
2023-05-05T11:22:38.981Z,94828.00
2023-05-05T11:23:38.343Z,94844.00
2023-05-05T11:24:38.360Z,94844.00
2023-05-05T11:25:38.422Z,94838.00
2023-05-05T11:26:38.474Z,94840.00
2023-05-05T11:27:38.478Z,94838.00
2023-05-05T11:28:38.500Z,94838.00
2023-05-05T11:29:38.592Z,94836.00
2023-05-05T11:30:38.659Z,94836.00
2023-05-05T11:31:38.699Z,94836.00
2023-05-05T11:32:38.711Z,94828.00
2023-05-05T11:33:38.718Z,94830.00
2023-05-05T11:34:38.792Z,94826.00
2023-05-05T11:35:38.797Z,94826.00
2023-05-05T11:36:38.856Z,94824.00
2023-05-05T11:37:38.902Z,94822.00
2023-05-05T11:38:38.964Z,94822.00
2023-05-05T11:39:39.031Z,94820.00
2023-05-05T11:40:39.038Z,94818.00
2023-05-05T11:41:39.092Z,94820.00
2023-05-05T11:42:39.150Z,94816.00
2023-05-05T11:43:39.153Z,94814.00
2023-05-05T11:44:39.213Z,94809.00
2023-05-05T11:45:39.333Z,94807.00